createdAt,value
2022-10-14T00:12:05.788Z,12
2022-10-14T00:40:40.249Z,11
2022-10-14T01:09:15.404Z,11
2022-10-14T01:37:44.451Z,10
2022-10-14T02:06:11.677Z,10
2022-10-14T03:03:20.594Z,10
2022-10-14T04:00:42.851Z,10
2022-10-14T04:29:18.468Z,11
2022-10-14T04:59:10.187Z,11
2022-10-14T05:56:27.386Z,10
2022-10-14T06:25:09.794Z,10
2022-10-14T06:53:44.869Z,11
2022-10-14T07:22:14.280Z,11
2022-10-14T07:50:55.712Z,11
2022-10-14T08:20:05.285Z,11
2022-10-14T08:48:13.592Z,10
2022-10-14T09:17:04.447Z,9
2022-10-14T09:45:31.123Z,8
2022-10-14T10:14:09.839Z,7
2022-10-14T11:11:29.485Z,6
2022-10-14T11:40:03.939Z,7
2022-10-14T12:37:30.526Z,7
2022-10-14T13:05:57.356Z,7
2022-10-14T13:34:53.573Z,6
2022-10-14T14:32:14.426Z,6
2022-10-14T15:00:43.862Z,5
2022-10-14T15:29:25.173Z,4
2022-10-14T15:58:10.433Z,3
2022-10-14T16:26:50.603Z,3
2022-10-14T16:55:24.374Z,3
2022-10-14T17:24:05.418Z,3
2022-10-14T17:52:35.031Z,1
2022-10-14T18:51:00.490Z,1
2022-10-14T19:19:15.460Z,1
2022-10-14T19:47:51.581Z,1
2022-10-14T20:16:25.460Z,1
2022-10-14T20:44:49.189Z,1
2022-10-14T21:13:29.564Z,1
2022-10-14T21:42:05.871Z,1
2022-10-14T22:10:58.755Z,1
